sensor_id;sensor_type;location;lat;lon;timestamp;temperature;humidity
78514;SHT31;67814;51.976;5.810;2024-01-27T00:00:04;5.6;71.4
78514;SHT31;67814;51.976;5.810;2024-01-27T00:02:33;5.6;71.7
78514;SHT31;67814;51.976;5.810;2024-01-27T00:05:02;5.6;71.8
78514;SHT31;67814;51.976;5.810;2024-01-27T00:07:31;5.6;71.8
78514;SHT31;67814;51.976;5.810;2024-01-27T00:10:01;5.6;71.7
78514;SHT31;67814;51.976;5.810;2024-01-27T00:12:29;5.6;71.5
78514;SHT31;67814;51.976;5.810;2024-01-27T00:14:58;5.6;71.5
78514;SHT31;67814;51.976;5.810;2024-01-27T00:17:27;5.6;71.6
78514;SHT31;67814;51.976;5.810;2024-01-27T00:19:56;5.6;71.2
78514;SHT31;67814;51.976;5.810;2024-01-27T00:22:24;5.6;71.2
78514;SHT31;67814;51.976;5.810;2024-01-27T00:24:53;5.6;71.1
78514;SHT31;67814;51.976;5.810;2024-01-27T00:27:21;5.6;71.3
78514;SHT31;67814;51.976;5.810;2024-01-27T00:29:50;5.6;71.1
78514;SHT31;67814;51.976;5.810;2024-01-27T00:32:18;5.6;71.0
78514;SHT31;67814;51.976;5.810;2024-01-27T00:34:47;5.6;70.9
78514;SHT31;67814;51.976;5.810;2024-01-27T00:37:18;5.6;71.0
78514;SHT31;67814;51.976;5.810;2024-01-27T00:39:47;5.6;71.1
78514;SHT31;67814;51.976;5.810;2024-01-27T00:42:17;5.6;71.1
78514;SHT31;67814;51.976;5.810;2024-01-27T00:44:50;5.6;71.2
78514;SHT31;67814;51.976;5.810;2024-01-27T00:47:19;5.6;71.1
78514;SHT31;67814;51.976;5.810;2024-01-27T00:49:47;5.6;71.2
78514;SHT31;67814;51.976;5.810;2024-01-27T00:52:18;5.6;71.0
78514;SHT31;67814;51.976;5.810;2024-01-27T00:54:46;5.6;70.7
78514;SHT31;67814;51.976;5.810;2024-01-27T00:57:16;5.6;70.5
78514;SHT31;67814;51.976;5.810;2024-01-27T00:59:46;5.6;70.5
78514;SHT31;67814;51.976;5.810;2024-01-27T01:02:17;5.6;70.5
78514;SHT31;67814;51.976;5.810;2024-01-27T01:04:45;5.6;70.4
78514;SHT31;67814;51.976;5.810;2024-01-27T01:07:14;5.6;70.5
78514;SHT31;67814;51.976;5.810;2024-01-27T01:09:45;5.6;70.6
78514;SHT31;67814;51.976;5.810;2024-01-27T01:12:14;5.6;70.7
78514;SHT31;67814;51.976;5.810;2024-01-27T01:14:43;5.6;70.4
78514;SHT31;67814;51.976;5.810;2024-01-27T01:17:12;5.5;70.7
78514;SHT31;67814;51.976;5.810;2024-01-27T01:19:41;5.5;70.6
78514;SHT31;67814;51.976;5.810;2024-01-27T01:22:10;5.5;70.6
78514;SHT31;67814;51.976;5.810;2024-01-27T01:24:38;5.5;70.6
78514;SHT31;67814;51.976;5.810;2024-01-27T01:27:07;5.5;70.7
78514;SHT31;67814;51.976;5.810;2024-01-27T01:29:35;5.5;70.4
78514;SHT31;67814;51.976;5.810;2024-01-27T01:32:04;5.5;70.5
78514;SHT31;67814;51.976;5.810;2024-01-27T01:34:33;5.5;70.2
78514;SHT31;67814;51.976;5.810;2024-01-27T01:37:02;5.5;70.0
78514;SHT31;67814;51.976;5.810;2024-01-27T01:39:31;5.5;69.9
78514;SHT31;67814;51.976;5.810;2024-01-27T01:41:59;5.4;69.8
78514;SHT31;67814;51.976;5.810;2024-01-27T01:44:30;5.4;69.7
78514;SHT31;67814;51.976;5.810;2024-01-27T01:46:59;5.4;69.8
78514;SHT31;67814;51.976;5.810;2024-01-27T01:49:28;5.4;69.7
78514;SHT31;67814;51.976;5.810;2024-01-27T01:51:56;5.4;69.8
78514;SHT31;67814;51.976;5.810;2024-01-27T01:54:26;5.3;69.8
78514;SHT31;67814;51.976;5.810;2024-01-27T01:56:57;5.3;69.9
78514;SHT31;67814;51.976;5.810;2024-01-27T01:59:26;5.3;69.9
78514;SHT31;67814;51.976;5.810;2024-01-27T02:01:55;5.3;69.9
78514;SHT31;67814;51.976;5.810;2024-01-27T02:04:24;5.2;69.7
78514;SHT31;67814;51.976;5.810;2024-01-27T02:06:52;5.2;69.5
78514;SHT31;67814;51.976;5.810;2024-01-27T02:09:21;5.2;69.6
78514;SHT31;67814;51.976;5.810;2024-01-27T02:11:49;5.2;69.7
78514;SHT31;67814;51.976;5.810;2024-01-27T02:14:18;5.1;70.4
78514;SHT31;67814;51.976;5.810;2024-01-27T02:16:51;5.1;70.7
78514;SHT31;67814;51.976;5.810;2024-01-27T02:19:20;5.1;70.4
78514;SHT31;67814;51.976;5.810;2024-01-27T02:21:49;5.1;70.1
78514;SHT31;67814;51.976;5.810;2024-01-27T02:24:19;5.1;70.2
78514;SHT31;67814;51.976;5.810;2024-01-27T02:26:48;5.1;69.9
78514;SHT31;67814;51.976;5.810;2024-01-27T02:29:16;5.1;69.9
78514;SHT31;67814;51.976;5.810;2024-01-27T02:31:46;5.0;69.8
78514;SHT31;67814;51.976;5.810;2024-01-27T02:34:14;5.0;69.6
78514;SHT31;67814;51.976;5.810;2024-01-27T02:36:43;5.0;69.7
78514;SHT31;67814;51.976;5.810;2024-01-27T02:39:12;5.0;69.6
78514;SHT31;67814;51.976;5.810;2024-01-27T02:41:42;4.9;69.5
78514;SHT31;67814;51.976;5.810;2024-01-27T02:44:11;4.9;69.5
78514;SHT31;67814;51.976;5.810;2024-01-27T02:46:40;4.9;69.4
78514;SHT31;67814;51.976;5.810;2024-01-27T02:49:11;4.9;69.3
78514;SHT31;67814;51.976;5.810;2024-01-27T02:51:39;4.8;69.3
78514;SHT31;67814;51.976;5.810;2024-01-27T02:54:08;4.8;69.4
78514;SHT31;67814;51.976;5.810;2024-01-27T02:56:36;4.8;69.4
78514;SHT31;67814;51.976;5.810;2024-01-27T02:59:05;4.7;69.4
78514;SHT31;67814;51.976;5.810;2024-01-27T03:01:34;4.7;69.4
78514;SHT31;67814;51.976;5.810;2024-01-27T03:04:02;4.7;69.2
78514;SHT31;67814;51.976;5.810;2024-01-27T03:06:32;4.7;69.2
78514;SHT31;67814;51.976;5.810;2024-01-27T03:09:00;4.6;69.2
78514;SHT31;67814;51.976;5.810;2024-01-27T03:11:29;4.6;69.6
78514;SHT31;67814;51.976;5.810;2024-01-27T03:13:58;4.6;69.9
78514;SHT31;67814;51.976;5.810;2024-01-27T03:16:27;4.5;70.3
78514;SHT31;67814;51.976;5.810;2024-01-27T03:18:55;4.5;70.6
78514;SHT31;67814;51.976;5.810;2024-01-27T03:21:24;4.5;70.8
78514;SHT31;67814;51.976;5.810;2024-01-27T03:23:53;4.5;71.1
78514;SHT31;67814;51.976;5.810;2024-01-27T03:26:21;4.5;71.6
78514;SHT31;67814;51.976;5.810;2024-01-27T03:28:51;4.5;71.5
78514;SHT31;67814;51.976;5.810;2024-01-27T03:31:20;4.5;71.6
78514;SHT31;67814;51.976;5.810;2024-01-27T03:33:48;4.5;71.5
78514;SHT31;67814;51.976;5.810;2024-01-27T03:36:17;4.5;71.7
78514;SHT31;67814;51.976;5.810;2024-01-27T03:38:47;4.4;71.5
78514;SHT31;67814;51.976;5.810;2024-01-27T03:41:16;4.4;71.4
78514;SHT31;67814;51.976;5.810;2024-01-27T03:43:44;4.4;71.1
78514;SHT31;67814;51.976;5.810;2024-01-27T03:46:13;4.4;70.9
78514;SHT31;67814;51.976;5.810;2024-01-27T03:48:42;4.4;70.7
78514;SHT31;67814;51.976;5.810;2024-01-27T03:51:11;4.4;70.6
78514;SHT31;67814;51.976;5.810;2024-01-27T03:53:39;4.4;70.5
78514;SHT31;67814;51.976;5.810;2024-01-27T03:56:11;4.4;70.4
78514;SHT31;67814;51.976;5.810;2024-01-27T03:58:40;4.3;70.5
78514;SHT31;67814;51.976;5.810;2024-01-27T04:01:08;4.3;70.5
78514;SHT31;67814;51.976;5.810;2024-01-27T04:03:37;4.3;70.6
78514;SHT31;67814;51.976;5.810;2024-01-27T04:06:06;4.3;70.9
78514;SHT31;67814;51.976;5.810;2024-01-27T04:08:36;4.3;70.9
78514;SHT31;67814;51.976;5.810;2024-01-27T04:11:06;4.3;70.8
78514;SHT31;67814;51.976;5.810;2024-01-27T04:13:34;4.3;70.8
78514;SHT31;67814;51.976;5.810;2024-01-27T04:16:03;4.3;70.8
78514;SHT31;67814;51.976;5.810;2024-01-27T04:18:33;4.2;70.9
78514;SHT31;67814;51.976;5.810;2024-01-27T04:21:01;4.2;70.9
78514;SHT31;67814;51.976;5.810;2024-01-27T04:23:30;4.2;71.0
78514;SHT31;67814;51.976;5.810;2024-01-27T04:25:59;4.2;71.1
78514;SHT31;67814;51.976;5.810;2024-01-27T04:28:28;4.2;71.1
78514;SHT31;67814;51.976;5.810;2024-01-27T04:30:58;4.2;70.8
78514;SHT31;67814;51.976;5.810;2024-01-27T04:33:27;4.2;70.6
78514;SHT31;67814;51.976;5.810;2024-01-27T04:35:56;4.2;70.6
78514;SHT31;67814;51.976;5.810;2024-01-27T04:38:26;4.2;70.4
78514;SHT31;67814;51.976;5.810;2024-01-27T04:40:55;4.2;70.3
78514;SHT31;67814;51.976;5.810;2024-01-27T04:43:23;4.1;70.4
78514;SHT31;67814;51.976;5.810;2024-01-27T04:45:52;4.1;70.3
78514;SHT31;67814;51.976;5.810;2024-01-27T04:48:21;4.1;70.3
78514;SHT31;67814;51.976;5.810;2024-01-27T04:50:49;4.1;70.7
78514;SHT31;67814;51.976;5.810;2024-01-27T04:53:18;4.0;70.8
78514;SHT31;67814;51.976;5.810;2024-01-27T04:55:47;4.0;70.7
78514;SHT31;67814;51.976;5.810;2024-01-27T04:58:15;4.0;70.6
78514;SHT31;67814;51.976;5.810;2024-01-27T05:00:44;4.0;70.7
78514;SHT31;67814;51.976;5.810;2024-01-27T05:03:12;4.0;70.7
78514;SHT31;67814;51.976;5.810;2024-01-27T05:05:43;4.0;70.8
78514;SHT31;67814;51.976;5.810;2024-01-27T05:08:12;3.9;71.0
78514;SHT31;67814;51.976;5.810;2024-01-27T05:10:43;3.9;71.4
78514;SHT31;67814;51.976;5.810;2024-01-27T05:13:11;3.9;71.7
78514;SHT31;67814;51.976;5.810;2024-01-27T05:15:40;3.9;72.2
78514;SHT31;67814;51.976;5.810;2024-01-27T05:18:09;3.9;72.4
78514;SHT31;67814;51.976;5.810;2024-01-27T05:20:38;3.9;72.6
78514;SHT31;67814;51.976;5.810;2024-01-27T05:23:07;3.9;72.7
78514;SHT31;67814;51.976;5.810;2024-01-27T05:25:35;3.9;73.2
78514;SHT31;67814;51.976;5.810;2024-01-27T05:28:05;3.9;73.3
78514;SHT31;67814;51.976;5.810;2024-01-27T05:30:34;3.9;73.3
78514;SHT31;67814;51.976;5.810;2024-01-27T05:33:02;3.9;73.1
78514;SHT31;67814;51.976;5.810;2024-01-27T05:35:31;3.9;72.6
78514;SHT31;67814;51.976;5.810;2024-01-27T05:38:02;4.0;72.6
78514;SHT31;67814;51.976;5.810;2024-01-27T05:40:30;4.0;72.3
78514;SHT31;67814;51.976;5.810;2024-01-27T05:42:59;4.0;71.9
78514;SHT31;67814;51.976;5.810;2024-01-27T05:45:28;4.0;72.0
78514;SHT31;67814;51.976;5.810;2024-01-27T05:47:57;4.0;71.8
78514;SHT31;67814;51.976;5.810;2024-01-27T05:50:26;4.0;71.7
78514;SHT31;67814;51.976;5.810;2024-01-27T05:52:57;4.0;71.6
78514;SHT31;67814;51.976;5.810;2024-01-27T05:55:26;4.0;71.4
78514;SHT31;67814;51.976;5.810;2024-01-27T05:57:55;4.0;71.3
78514;SHT31;67814;51.976;5.810;2024-01-27T06:00:23;3.9;71.3
78514;SHT31;67814;51.976;5.810;2024-01-27T06:02:52;3.9;71.2
78514;SHT31;67814;51.976;5.810;2024-01-27T06:05:21;3.9;71.3
78514;SHT31;67814;51.976;5.810;2024-01-27T06:07:49;3.9;71.2
78514;SHT31;67814;51.976;5.810;2024-01-27T06:10:20;3.9;71.2
78514;SHT31;67814;51.976;5.810;2024-01-27T06:12:51;3.9;70.9
78514;SHT31;67814;51.976;5.810;2024-01-27T06:15:19;3.9;70.9
78514;SHT31;67814;51.976;5.810;2024-01-27T06:17:49;3.9;71.1
78514;SHT31;67814;51.976;5.810;2024-01-27T06:20:17;3.9;71.7
78514;SHT31;67814;51.976;5.810;2024-01-27T06:22:48;3.8;71.8
78514;SHT31;67814;51.976;5.810;2024-01-27T06:25:18;3.8;71.6
78514;SHT31;67814;51.976;5.810;2024-01-27T06:27:47;3.8;71.5
78514;SHT31;67814;51.976;5.810;2024-01-27T06:30:17;3.8;71.4
78514;SHT31;67814;51.976;5.810;2024-01-27T06:32:46;3.8;71.3
78514;SHT31;67814;51.976;5.810;2024-01-27T06:35:15;3.8;71.3
78514;SHT31;67814;51.976;5.810;2024-01-27T06:37:44;3.8;71.1
78514;SHT31;67814;51.976;5.810;2024-01-27T06:40:13;3.8;71.1
78514;SHT31;67814;51.976;5.810;2024-01-27T06:42:42;3.8;71.2
78514;SHT31;67814;51.976;5.810;2024-01-27T06:45:11;3.8;71.0
78514;SHT31;67814;51.976;5.810;2024-01-27T06:47:40;3.7;71.3
78514;SHT31;67814;51.976;5.810;2024-01-27T06:50:09;3.7;71.3
78514;SHT31;67814;51.976;5.810;2024-01-27T06:52:38;3.7;71.3
78514;SHT31;67814;51.976;5.810;2024-01-27T06:55:07;3.7;71.5
78514;SHT31;67814;51.976;5.810;2024-01-27T06:57:37;3.7;71.3
78514;SHT31;67814;51.976;5.810;2024-01-27T07:00:08;3.7;71.2
78514;SHT31;67814;51.976;5.810;2024-01-27T07:02:40;3.7;71.2
78514;SHT31;67814;51.976;5.810;2024-01-27T07:05:11;3.7;71.0
78514;SHT31;67814;51.976;5.810;2024-01-27T07:07:40;3.7;71.0
78514;SHT31;67814;51.976;5.810;2024-01-27T07:10:10;3.6;71.0
78514;SHT31;67814;51.976;5.810;2024-01-27T07:12:38;3.6;71.0
78514;SHT31;67814;51.976;5.810;2024-01-27T07:15:07;3.6;71.0
78514;SHT31;67814;51.976;5.810;2024-01-27T07:17:36;3.6;70.9
78514;SHT31;67814;51.976;5.810;2024-01-27T07:20:05;3.6;70.9
78514;SHT31;67814;51.976;5.810;2024-01-27T07:22:35;3.6;70.9
78514;SHT31;67814;51.976;5.810;2024-01-27T07:25:04;3.6;70.9
78514;SHT31;67814;51.976;5.810;2024-01-27T07:27:33;3.6;71.0
78514;SHT31;67814;51.976;5.810;2024-01-27T07:30:02;3.6;71.0
78514;SHT31;67814;51.976;5.810;2024-01-27T07:32:33;3.6;70.9
78514;SHT31;67814;51.976;5.810;2024-01-27T07:35:02;3.6;70.9
78514;SHT31;67814;51.976;5.810;2024-01-27T07:37:32;3.5;71.0
78514;SHT31;67814;51.976;5.810;2024-01-27T07:40:01;3.5;71.1
78514;SHT31;67814;51.976;5.810;2024-01-27T07:42:29;3.5;71.1
78514;SHT31;67814;51.976;5.810;2024-01-27T07:44:58;3.5;71.0
78514;SHT31;67814;51.976;5.810;2024-01-27T07:47:26;3.5;71.1
78514;SHT31;67814;51.976;5.810;2024-01-27T07:49:57;3.5;71.4
78514;SHT31;67814;51.976;5.810;2024-01-27T07:52:26;3.6;71.8
78514;SHT31;67814;51.976;5.810;2024-01-27T07:54:54;3.6;72.2
78514;SHT31;67814;51.976;5.810;2024-01-27T07:57:24;3.6;72.7
78514;SHT31;67814;51.976;5.810;2024-01-27T07:59:52;3.6;72.9
78514;SHT31;67814;51.976;5.810;2024-01-27T08:02:21;3.6;73.3
78514;SHT31;67814;51.976;5.810;2024-01-27T08:04:50;3.6;73.9
78514;SHT31;67814;51.976;5.810;2024-01-27T08:07:18;3.6;74.1
78514;SHT31;67814;51.976;5.810;2024-01-27T08:09:49;3.7;74.3
78514;SHT31;67814;51.976;5.810;2024-01-27T08:12:17;3.7;74.6
78514;SHT31;67814;51.976;5.810;2024-01-27T08:14:46;3.7;74.9
78514;SHT31;67814;51.976;5.810;2024-01-27T08:17:14;3.8;74.8
78514;SHT31;67814;51.976;5.810;2024-01-27T08:19:45;3.8;74.7
78514;SHT31;67814;51.976;5.810;2024-01-27T08:22:14;3.9;74.9
78514;SHT31;67814;51.976;5.810;2024-01-27T08:24:42;3.9;74.9
78514;SHT31;67814;51.976;5.810;2024-01-27T08:27:11;4.0;75.0
78514;SHT31;67814;51.976;5.810;2024-01-27T08:29:39;4.0;74.9
78514;SHT31;67814;51.976;5.810;2024-01-27T08:32:08;4.1;75.0
78514;SHT31;67814;51.976;5.810;2024-01-27T08:34:41;4.1;75.1
78514;SHT31;67814;51.976;5.810;2024-01-27T08:37:18;4.2;74.9
78514;SHT31;67814;51.976;5.810;2024-01-27T08:39:48;4.2;74.9
78514;SHT31;67814;51.976;5.810;2024-01-27T08:42:18;4.3;74.9
78514;SHT31;67814;51.976;5.810;2024-01-27T08:44:46;4.4;74.8
78514;SHT31;67814;51.976;5.810;2024-01-27T08:47:15;4.4;74.9
78514;SHT31;67814;51.976;5.810;2024-01-27T08:49:43;4.5;74.6
78514;SHT31;67814;51.976;5.810;2024-01-27T08:52:12;4.6;74.6
78514;SHT31;67814;51.976;5.810;2024-01-27T08:54:42;4.6;74.2
78514;SHT31;67814;51.976;5.810;2024-01-27T08:57:12;4.7;73.9
78514;SHT31;67814;51.976;5.810;2024-01-27T08:59:40;4.8;73.5
78514;SHT31;67814;51.976;5.810;2024-01-27T09:02:09;4.9;73.6
78514;SHT31;67814;51.976;5.810;2024-01-27T09:04:37;4.9;73.1
78514;SHT31;67814;51.976;5.810;2024-01-27T09:07:06;5.0;73.5
78514;SHT31;67814;51.976;5.810;2024-01-27T09:09:35;5.1;73.1
78514;SHT31;67814;51.976;5.810;2024-01-27T09:12:05;5.1;72.7
78514;SHT31;67814;51.976;5.810;2024-01-27T09:14:33;5.2;72.7
78514;SHT31;67814;51.976;5.810;2024-01-27T09:17:02;5.3;72.4
78514;SHT31;67814;51.976;5.810;2024-01-27T09:19:33;5.3;72.3
78514;SHT31;67814;51.976;5.810;2024-01-27T09:22:01;5.4;71.8
78514;SHT31;67814;51.976;5.810;2024-01-27T09:24:30;5.5;72.0
78514;SHT31;67814;51.976;5.810;2024-01-27T09:26:59;5.5;71.7
78514;SHT31;67814;51.976;5.810;2024-01-27T09:29:29;5.6;71.3
78514;SHT31;67814;51.976;5.810;2024-01-27T09:31:57;5.6;71.1
78514;SHT31;67814;51.976;5.810;2024-01-27T09:34:26;5.7;70.4
78514;SHT31;67814;51.976;5.810;2024-01-27T09:36:57;5.7;70.1
78514;SHT31;67814;51.976;5.810;2024-01-27T09:39:26;5.7;70.1
78514;SHT31;67814;51.976;5.810;2024-01-27T09:41:56;5.7;70.1
78514;SHT31;67814;51.976;5.810;2024-01-27T09:44:25;5.7;70.1
78514;SHT31;67814;51.976;5.810;2024-01-27T09:46:55;5.8;70.3
78514;SHT31;67814;51.976;5.810;2024-01-27T09:49:25;5.8;70.4
78514;SHT31;67814;51.976;5.810;2024-01-27T09:51:54;5.8;70.4
78514;SHT31;67814;51.976;5.810;2024-01-27T09:54:23;5.8;70.6
78514;SHT31;67814;51.976;5.810;2024-01-27T09:56:52;5.8;70.9
78514;SHT31;67814;51.976;5.810;2024-01-27T09:59:23;5.9;71.1
78514;SHT31;67814;51.976;5.810;2024-01-27T10:01:53;5.9;71.1
78514;SHT31;67814;51.976;5.810;2024-01-27T10:04:24;5.9;70.9
78514;SHT31;67814;51.976;5.810;2024-01-27T10:06:53;5.9;71.1
78514;SHT31;67814;51.976;5.810;2024-01-27T10:09:25;6.0;71.4
78514;SHT31;67814;51.976;5.810;2024-01-27T10:11:55;6.0;71.5
78514;SHT31;67814;51.976;5.810;2024-01-27T10:14:24;6.0;71.3
78514;SHT31;67814;51.976;5.810;2024-01-27T10:16:53;6.1;71.3
78514;SHT31;67814;51.976;5.810;2024-01-27T10:19:22;6.1;71.3
78514;SHT31;67814;51.976;5.810;2024-01-27T10:22:01;6.2;71.1
78514;SHT31;67814;51.976;5.810;2024-01-27T10:24:31;6.2;71.4
78514;SHT31;67814;51.976;5.810;2024-01-27T10:27:02;6.3;71.3
78514;SHT31;67814;51.976;5.810;2024-01-27T10:29:31;6.3;71.1
78514;SHT31;67814;51.976;5.810;2024-01-27T10:32:08;6.4;70.9
78514;SHT31;67814;51.976;5.810;2024-01-27T10:34:37;6.4;70.8
78514;SHT31;67814;51.976;5.810;2024-01-27T10:37:06;6.5;70.7
78514;SHT31;67814;51.976;5.810;2024-01-27T10:39:34;6.6;70.6
78514;SHT31;67814;51.976;5.810;2024-01-27T10:42:05;6.6;70.6
78514;SHT31;67814;51.976;5.810;2024-01-27T10:44:36;6.7;70.5
78514;SHT31;67814;51.976;5.810;2024-01-27T10:47:14;6.8;70.2
78514;SHT31;67814;51.976;5.810;2024-01-27T10:49:46;6.8;69.8
78514;SHT31;67814;51.976;5.810;2024-01-27T10:52:18;6.9;69.7
78514;SHT31;67814;51.976;5.810;2024-01-27T10:54:52;6.9;69.6
78514;SHT31;67814;51.976;5.810;2024-01-27T10:57:24;7.0;69.4
78514;SHT31;67814;51.976;5.810;2024-01-27T10:59:54;7.0;69.3
78514;SHT31;67814;51.976;5.810;2024-01-27T11:02:24;7.1;69.4
78514;SHT31;67814;51.976;5.810;2024-01-27T11:04:53;7.1;69.2
78514;SHT31;67814;51.976;5.810;2024-01-27T11:07:23;7.2;68.8
78514;SHT31;67814;51.976;5.810;2024-01-27T11:09:52;7.2;68.8
78514;SHT31;67814;51.976;5.810;2024-01-27T11:12:23;7.3;68.7
78514;SHT31;67814;51.976;5.810;2024-01-27T11:14:52;7.4;68.5
78514;SHT31;67814;51.976;5.810;2024-01-27T11:17:21;7.4;68.3
78514;SHT31;67814;51.976;5.810;2024-01-27T11:19:50;7.5;67.9
78514;SHT31;67814;51.976;5.810;2024-01-27T11:22:28;7.6;68.0
78514;SHT31;67814;51.976;5.810;2024-01-27T11:25:07;7.6;67.7
78514;SHT31;67814;51.976;5.810;2024-01-27T11:27:38;7.7;67.7
78514;SHT31;67814;51.976;5.810;2024-01-27T11:30:26;7.8;67.4
78514;SHT31;67814;51.976;5.810;2024-01-27T11:32:57;7.8;67.1
78514;SHT31;67814;51.976;5.810;2024-01-27T11:35:26;7.9;66.1
78514;SHT31;67814;51.976;5.810;2024-01-27T11:37:56;7.9;65.5
78514;SHT31;67814;51.976;5.810;2024-01-27T11:40:24;8.0;65.1
78514;SHT31;67814;51.976;5.810;2024-01-27T11:42:57;8.0;65.7
78514;SHT31;67814;51.976;5.810;2024-01-27T11:45:26;8.1;65.0
78514;SHT31;67814;51.976;5.810;2024-01-27T11:47:56;8.1;64.7
78514;SHT31;67814;51.976;5.810;2024-01-27T11:50:27;8.2;63.9
78514;SHT31;67814;51.976;5.810;2024-01-27T11:52:56;8.2;63.7
78514;SHT31;67814;51.976;5.810;2024-01-27T11:55:24;8.2;64.2
78514;SHT31;67814;51.976;5.810;2024-01-27T11:57:53;8.3;64.2
78514;SHT31;67814;51.976;5.810;2024-01-27T12:00:21;8.3;63.7
78514;SHT31;67814;51.976;5.810;2024-01-27T12:02:52;8.3;63.8
78514;SHT31;67814;51.976;5.810;2024-01-27T12:05:21;8.4;64.0
78514;SHT31;67814;51.976;5.810;2024-01-27T12:07:51;8.4;63.7
78514;SHT31;67814;51.976;5.810;2024-01-27T12:10:20;8.5;63.8
78514;SHT31;67814;51.976;5.810;2024-01-27T12:12:49;8.5;63.5
78514;SHT31;67814;51.976;5.810;2024-01-27T12:15:17;8.6;63.3
78514;SHT31;67814;51.976;5.810;2024-01-27T12:17:52;8.6;63.2
78514;SHT31;67814;51.976;5.810;2024-01-27T12:20:22;8.6;62.7
78514;SHT31;67814;51.976;5.810;2024-01-27T12:23:03;8.7;62.6
78514;SHT31;67814;51.976;5.810;2024-01-27T12:25:32;8.7;62.6
78514;SHT31;67814;51.976;5.810;2024-01-27T12:28:05;8.8;62.1
78514;SHT31;67814;51.976;5.810;2024-01-27T12:30:34;8.8;62.3
78514;SHT31;67814;51.976;5.810;2024-01-27T12:33:11;8.8;62.5
78514;SHT31;67814;51.976;5.810;2024-01-27T12:35:41;8.9;62.4
78514;SHT31;67814;51.976;5.810;2024-01-27T12:38:09;8.9;62.2
78514;SHT31;67814;51.976;5.810;2024-01-27T12:40:38;9.0;62.0
78514;SHT31;67814;51.976;5.810;2024-01-27T12:43:07;9.0;61.5
78514;SHT31;67814;51.976;5.810;2024-01-27T12:45:36;9.1;61.2
78514;SHT31;67814;51.976;5.810;2024-01-27T12:48:05;9.1;60.6
78514;SHT31;67814;51.976;5.810;2024-01-27T12:50:34;9.1;61.1
78514;SHT31;67814;51.976;5.810;2024-01-27T12:53:03;9.1;61.0
78514;SHT31;67814;51.976;5.810;2024-01-27T12:55:32;9.1;61.1
78514;SHT31;67814;51.976;5.810;2024-01-27T12:58:00;9.2;60.9
78514;SHT31;67814;51.976;5.810;2024-01-27T13:00:29;9.2;60.5
78514;SHT31;67814;51.976;5.810;2024-01-27T13:02:57;9.2;60.6
78514;SHT31;67814;51.976;5.810;2024-01-27T13:05:28;9.3;60.6
78514;SHT31;67814;51.976;5.810;2024-01-27T13:07:57;9.3;60.3
78514;SHT31;67814;51.976;5.810;2024-01-27T13:10:25;9.3;60.6
78514;SHT31;67814;51.976;5.810;2024-01-27T13:12:54;9.3;60.3
78514;SHT31;67814;51.976;5.810;2024-01-27T13:15:24;9.4;60.2
78514;SHT31;67814;51.976;5.810;2024-01-27T13:17:53;9.4;60.1
78514;SHT31;67814;51.976;5.810;2024-01-27T13:20:22;9.4;59.5
78514;SHT31;67814;51.976;5.810;2024-01-27T13:22:50;9.5;59.5
78514;SHT31;67814;51.976;5.810;2024-01-27T13:25:20;9.5;59.1
78514;SHT31;67814;51.976;5.810;2024-01-27T13:27:49;9.5;59.3
78514;SHT31;67814;51.976;5.810;2024-01-27T13:30:18;9.5;59.1
78514;SHT31;67814;51.976;5.810;2024-01-27T13:32:46;9.5;59.1
78514;SHT31;67814;51.976;5.810;2024-01-27T13:35:15;9.5;58.9
78514;SHT31;67814;51.976;5.810;2024-01-27T13:37:44;9.5;59.0
78514;SHT31;67814;51.976;5.810;2024-01-27T13:40:14;9.5;59.0
78514;SHT31;67814;51.976;5.810;2024-01-27T13:42:43;9.6;59.4
78514;SHT31;67814;51.976;5.810;2024-01-27T13:45:12;9.6;59.5
78514;SHT31;67814;51.976;5.810;2024-01-27T13:47:41;9.6;59.1
78514;SHT31;67814;51.976;5.810;2024-01-27T13:50:13;9.6;59.3
78514;SHT31;67814;51.976;5.810;2024-01-27T13:52:42;9.6;59.6
78514;SHT31;67814;51.976;5.810;2024-01-27T13:55:12;9.6;59.2
78514;SHT31;67814;51.976;5.810;2024-01-27T13:57:41;9.6;59.3
78514;SHT31;67814;51.976;5.810;2024-01-27T14:00:12;9.6;59.2
78514;SHT31;67814;51.976;5.810;2024-01-27T14:02:40;9.6;59.0
78514;SHT31;67814;51.976;5.810;2024-01-27T14:05:12;9.6;59.2
78514;SHT31;67814;51.976;5.810;2024-01-27T14:07:41;9.6;59.0
78514;SHT31;67814;51.976;5.810;2024-01-27T14:10:10;9.6;59.5
78514;SHT31;67814;51.976;5.810;2024-01-27T14:12:39;9.6;59.4
78514;SHT31;67814;51.976;5.810;2024-01-27T14:15:08;9.7;59.3
78514;SHT31;67814;51.976;5.810;2024-01-27T14:17:37;9.7;59.4
78514;SHT31;67814;51.976;5.810;2024-01-27T14:20:06;9.7;59.2
78514;SHT31;67814;51.976;5.810;2024-01-27T14:22:35;9.7;59.1
78514;SHT31;67814;51.976;5.810;2024-01-27T14:25:05;9.7;58.8
78514;SHT31;67814;51.976;5.810;2024-01-27T14:27:34;9.7;59.0
78514;SHT31;67814;51.976;5.810;2024-01-27T14:30:03;9.8;59.0
78514;SHT31;67814;51.976;5.810;2024-01-27T14:32:32;9.8;58.7
78514;SHT31;67814;51.976;5.810;2024-01-27T14:35:01;9.8;58.8
78514;SHT31;67814;51.976;5.810;2024-01-27T14:37:32;9.8;58.6
78514;SHT31;67814;51.976;5.810;2024-01-27T14:40:01;9.8;58.7
78514;SHT31;67814;51.976;5.810;2024-01-27T14:42:31;9.8;58.6
78514;SHT31;67814;51.976;5.810;2024-01-27T14:45:02;9.8;58.8
78514;SHT31;67814;51.976;5.810;2024-01-27T14:47:31;9.9;58.4
78514;SHT31;67814;51.976;5.810;2024-01-27T14:50:00;9.9;57.9
78514;SHT31;67814;51.976;5.810;2024-01-27T14:52:29;9.9;57.8
78514;SHT31;67814;51.976;5.810;2024-01-27T14:54:58;9.9;58.1
78514;SHT31;67814;51.976;5.810;2024-01-27T14:57:27;9.9;58.0
78514;SHT31;67814;51.976;5.810;2024-01-27T14:59:55;9.9;57.8
78514;SHT31;67814;51.976;5.810;2024-01-27T15:02:24;9.9;57.9
78514;SHT31;67814;51.976;5.810;2024-01-27T15:04:55;9.8;57.8
78514;SHT31;67814;51.976;5.810;2024-01-27T15:07:24;9.8;57.5
78514;SHT31;67814;51.976;5.810;2024-01-27T15:09:56;9.8;57.6
78514;SHT31;67814;51.976;5.810;2024-01-27T15:12:24;9.8;58.2
78514;SHT31;67814;51.976;5.810;2024-01-27T15:14:53;9.8;58.5
78514;SHT31;67814;51.976;5.810;2024-01-27T15:17:22;9.8;58.9
78514;SHT31;67814;51.976;5.810;2024-01-27T15:19:51;9.8;58.6
78514;SHT31;67814;51.976;5.810;2024-01-27T15:22:20;9.7;59.1
78514;SHT31;67814;51.976;5.810;2024-01-27T15:24:48;9.7;58.9
78514;SHT31;67814;51.976;5.810;2024-01-27T15:27:19;9.7;59.2
78514;SHT31;67814;51.976;5.810;2024-01-27T15:29:48;9.6;59.2
78514;SHT31;67814;51.976;5.810;2024-01-27T15:32:16;9.6;59.7
78514;SHT31;67814;51.976;5.810;2024-01-27T15:34:48;9.6;60.0
78514;SHT31;67814;51.976;5.810;2024-01-27T15:37:16;9.5;60.5
78514;SHT31;67814;51.976;5.810;2024-01-27T15:39:45;9.5;60.8
78514;SHT31;67814;51.976;5.810;2024-01-27T15:42:14;9.4;61.0
78514;SHT31;67814;51.976;5.810;2024-01-27T15:44:42;9.4;61.0
78514;SHT31;67814;51.976;5.810;2024-01-27T15:47:11;9.3;61.3
78514;SHT31;67814;51.976;5.810;2024-01-27T15:49:39;9.3;61.3
78514;SHT31;67814;51.976;5.810;2024-01-27T15:52:08;9.2;61.5
78514;SHT31;67814;51.976;5.810;2024-01-27T15:54:38;9.2;61.7
78514;SHT31;67814;51.976;5.810;2024-01-27T15:57:10;9.1;62.3
78514;SHT31;67814;51.976;5.810;2024-01-27T15:59:38;9.1;62.1
78514;SHT31;67814;51.976;5.810;2024-01-27T16:02:07;9.0;62.4
78514;SHT31;67814;51.976;5.810;2024-01-27T16:04:36;8.9;62.7
78514;SHT31;67814;51.976;5.810;2024-01-27T16:07:05;8.9;62.8
78514;SHT31;67814;51.976;5.810;2024-01-27T16:09:33;8.8;62.8
78514;SHT31;67814;51.976;5.810;2024-01-27T16:12:06;8.8;62.8
78514;SHT31;67814;51.976;5.810;2024-01-27T16:14:35;8.7;63.0
78514;SHT31;67814;51.976;5.810;2024-01-27T16:17:04;8.6;63.2
78514;SHT31;67814;51.976;5.810;2024-01-27T16:19:32;8.6;63.3
78514;SHT31;67814;51.976;5.810;2024-01-27T16:22:01;8.5;63.5
78514;SHT31;67814;51.976;5.810;2024-01-27T16:24:30;8.5;63.8
78514;SHT31;67814;51.976;5.810;2024-01-27T16:26:58;8.4;64.0
78514;SHT31;67814;51.976;5.810;2024-01-27T16:29:27;8.3;64.2